Betting Tips

Betting tips Wednesday 06/02/2019

betting tips

 

Manchester City can crank up the pressure in the Premier League title race by moving ahead of leaders Liverpool on goal difference with victory at Everton on Wednesday – but will the defending champions seize their chance? City have actually lost three of their last five Premier League away matches and in the past they could have easily slipped up here. However, Everton are in a very bad place at the moment and City should capitalise. Pep Guardiola will be forced into changes when Manchester City travel to Everton on Wednesday given the quick turnaround between matches. Leroy Sane, Riyad Mahrez and John Stones will hope to start after dropping to the bench in Sunday’s 3-1 win at home to Arsenal. Everton’s poor run of form continued at the weekend after being beaten 3-1 at home to Wolves. Marco Silva is under huge pressure following a run of just three wins in 12 in the Premier League. Manchester City have the opportunity to apply even more pressure on Liverpool in midweek. This match was originally scheduled for the end of the month but has been brought forward due to the fact Pep Guardiola’s side are in the Carabao Cup final.

In Spain the second El Clasico of the season is set for Wednesday as Barcelona hosts Real Madrid in the first leg of their Copa del Rey semifinals. Barcelona have named Lionel Messi in the squad to face Real Madrid in today’s semi-final first leg, but will “wait until the last moment” to decide if he plays. The Argentine returned to training on Tuesday after suffering a thigh injury in Saturday’s 2-2 draw with Valencia. Madrid were in disarray after the last meeting between these two Spanish giants as Barca moved back to the top of the table, seven points clear of ninth placed Madrid. However, Los Blancos have moved up to third in the table – eight points behind Barcelona – having won their past four league games, and they are just two matches from a cup final. Whether it’s a sign of defiance or just tempting fate, manager Santiago Solari says he hopes Messi is fit for the first leg.

 

ALL TIPS

TipsterDateLeagueTimeMatchPickOddsBetScoreResult+/-Bet house
18/02/2019Italy - Serie A19:30AS Roma - BolognaBTTS4/510 - - -
18/02/2019Germany - Bundesliga19:30Nurnberg - Borussia DortmundDortmund -1 goal19/2010 - - -
18/02/2019England - FA CUP19:30Chelsea - Manchester UnitedManchester To Qualify27/2010 - - -
18/02/2019Spain - Primera Division20:00Huesca - Athletic BilbaoOver 2.513/1010 - - -
17/02/2019Italy - Serie A11:30Spal - FiorentinaOver 2.56/510 1-4 + 12
17/02/2019England - FA CUP13:00Bristol City - WolvesBTTS93/10010 0-1 - 10
Spain - Primera Division15:15Valencia - Espanyol13/410 0-0 - 10
17/02/2019Italy - Serie A17:00Inter - SampdoriaX23/210 2-1 - 10
Greece - Superleague17:30Olympiacos Piraeus - AEK AthensBTTS6/510 4-1 + 12
16/02/2019Germany - Bundesliga14:30VfB Stuttgart - RB Leipzig261/10010 1-3 + 6.1
16/02/2019England - League 215:00Grimsby - Cheltenham123/2010 1-0 + 11.5
16/02/2019England - FA CUP15:30Newport - Manchester CityBTTS163/10010 1-4 + 16.3
16/02/2019Italy - Serie A17:30Atalanta - AC MilanOver 2.521/2010 1-3 + 10.5
16/02/2019Spain - Primera Division19:45Barcelona - Valladolid1 & BTTS7/510 1-0 - 10
15/02/2019France - Ligue 118:00Nimes - Dijon16/710 2-0 + 8.5714285714286
15/02/2019Italy - Serie A19:30Juventus - FrosinoneJuventus and Under 3.5 Goals19/2010 3-0 + 9.5
15/02/2019Germany - Bundesliga19:30FC Augsburg - Bayern MunchenBTTS47/5010 2-3 + 9.4
15/02/2019England - FA CUP19:45Queens PR - WatfordMatch Total Goals 2-391/10010 0-1 - 10
15/02/2019Spain - Primera Division20:00Eibar - Getafe121/2010 2-2 - 10
14/02/2019Europe - Europa League17:55Krasnodar - Bayer LeverkusenOver 2.53/410 0-0 - 10
14/02/2019Europe - Europa League17:55Galatasaray - BenficaBTTS81/10010 1-2 + 8.1
14/02/2019Europe - Europa League17:55Lazio - FC SevillaX9/410 0-1 - 10
14/02/2019Europe - Europa League17:55Olympiacos Piraeus - Dynamo Kiev119/2010 2-2 - 10
14/02/2019Europe - Europa League17:55Rennes - Betis114/910 3-3 - 10
13/02/2019England - Championship19:45Leeds - SwanseaBTTS7/1010 2-1 + 7
13/02/2019England - Championship19:45Ipswich - Derby217/2010 1-1 - 10
13/02/2019England - Championship19:45Preston - NorwichBTTS & Over 2.51/110 3-1 + 10
13/02/2019Europe - Champions League20:00Ajax - Real Madrid223/2010 1-2 + 11.5
13/02/2019Europe - Champions League20:00Tottenham - Borussia Dortmund1123/10010 3-0 + 12.3
12/02/2019England - League 119:45Doncaster - Southend116/2510 3-0 + 6.4
12/02/2019England - League 119:45Walsall - AFC Wimbledon123/2010 0-1 - 10
12/02/2019England - League 219:45Swindon - Forest GreenOver 2.51/110 2-0 - 10
12/02/2019Europe - Champions League20:00AS Roma - FC PortoBTTS18/2510 2-1 + 7.2
12/02/2019Europe - Champions League20:00Manchester United - Paris Saint GermainOver 2.57/1010 0-2 - 10
11/02/2019Germany - 2.Bundesliga19:30Hamburg - Dynamo DresdenBTTS19/2510 1-0 - 10
11/02/2019Italy - Serie B20:00Venezia - Lecce2 DNB73/10010 1-1 - 0
11/02/2019Spain - Primera Division20:00Alaves - Levante1118/10010 2-0 + 11.8
11/02/2019England - Premier League20:00Wolves - NewcastleOver 2.56/510 1-1 - 10
10/02/2019Germany - Bundesliga14:30Werder Bremen - FC AugsburgBTTS61/10010 4-0 - 10
10/02/2019England - Premier League16:00Manchester City - Chelsea1 & BTTS19/1010 6-0 - 10
10/02/2019Italy - Serie A17:00Sassuolo - Juventus2 & Under 3.513/1010 0-3 + 13
10/02/2019Greece - Superleague17:30PAOK Thessalonikis - Olympiacos PiraeusBTTS1/110 3-1 + 10
10/02/2019Spain - Primera Division19:45Athletic Bilbao - Barcelona2 & BTTS11/510 0-0 - 10
09/02/2019England - Premier League12:30Fulham - Manchester United233/5010 0-3 + 6.6
09/02/2019England - Premier League15:00Liverpool - Bournemouth1 & BTTS6/410 3-0 - 10
09/02/2019Spain - Primera Division15:15Atletico Madrid - Real MadridBTTS4/510 1-3 + 8
09/02/2019Italy - Serie A17:00Fiorentina - NapoliOver 2.517/2010 0-0 - 10
09/02/2019Germany - Bundesliga17:30Bayern Munchen - FC SchalkeBTTS3/410 3-1 + 7.5
08/02/2019Germany - Bundesliga19:30Mainz 05 - Bayer LeverkusenOver 3.569/5010 1-5 + 13.8
08/02/2019Italy - Serie A19:30Chievo - AS RomaBTTS3/410 0-3 - 10
08/02/2019France - Ligue 119:45Dijon - MarseilleBTTS73/10010 1-2 + 7.3
08/02/2019England - Championship19:45Aston Villa - Sheffield Utd17/410 3-3 - 10
08/02/2019Spain - Primera Division20:00Valladolid - VillarrealOver 2.511/1010 0-0 - 10
07/02/2019Serie A19:30Lazio - Empoli1 & BTTS8/510 1-0 - 10
07/02/2019France - Coupe de France20:00Guingamp - Olympique Lyonnais211/2010 1-2 + 5.5
07/02/2019Spain - Copa del Rey20:00Betis - ValenciaX21/1010 2-2 + 21
06/02/2019England - Premier League19:45Everton - Manchester City2/2 (h-t / f-t)73/10010 0-2 (0-1 ht) + 7.3
06/02/2019Germany - DFB Pokal19:45Hertha Berlin - Bayern MunchenBTTS37/5010 2-2 + 7.4
06/02/2019Scotland - Premier League19:45Hearts - Livingston13/410 0-0 - 10
06/02/2019Spain - Copa del Rey20:00Barcelona - Real Madrid1 & Over 2.55/410 1-1 - 10
06/02/2019Portugal - Cup20:45Benfica - Sporting Lisboa1 & BTTS11/410 2-1 + 27.5
05/02/2019France - Coupe de France17:30Nantes - ToulouseBTTS91/10010 2-0 - 10
05/02/2019France - Ligue 118:00Marseille - BordeauxΧ23/510 1-0 - 10
05/02/2019England - FA CUP19:45Newport - MiddlesbroughBTTS97/10010 2-0 - 10
05/02/2019England - FA CUP19:45Wolves - Shrewsbury1 & Over 2.56/1010 3-2 + 6
05/02/2019Germany - DFB Pokal19:45Borussia Dortmund - Werder Bremen1 & Over 2.521/2010 1-1 - 10
04/02/2019Italy - Serie A20:00Cagliari - Atalantaover 2.57/1010 0-1 - 10
04/02/2019Rayo Vallecano - Leganes20:00Rayo Vallecano - LeganesBTTS49/5010 1-2 + 9.8
04/02/2019England - Premier League20:00West Ham - Liverpool2 & BTTS(No)5/410 1-1 - 10
03/02/2019Italy - Serie A14:00Udinese Calcio - FiorentinaOver 2.56/510 1-1 - 10
03/02/2019England - Premier League14:05Leicester - Manchester United223/2010 0-1 + 11.5
03/02/2019Spain - Primera Division15:15Betis - Atletico Madrid221/2010 1-0 - 10
03/02/2019England - Premier League16:30Manchester City - Arsenal1 & BTTS6/510 3-1 + 12
03/02/2019Italy - Serie A19:30AS Roma - AC Milan223/1010 1-1 - 10
02/02/2019Chelmsford CityIrish Lotto At Totesport.com Handicap2 pts win ARISHKA3-110 - - -
02/02/2019Germany - Bundesliga14:30Bayer Leverkusen - Bayern Munchen2 & Over 3.521/1010 3-1 - 10
02/02/2019England - Premier League15:00Crystal Palace - Fulham2 DNB7/410 2-0 - 10
02/02/2019England - Premier LeagueEverton - WolvesOver 2.51/110 1-3 + 10
02/02/2019Italy - Serie A19:30Juventus - ParmaBTTS6/510 3-3 + 12
02/02/2019Spain - Primera Division19:45Celta Vigo - FC Sevilla277/10010 1-0 - 10
01/02/2019France - Ligue 219:00Niort - NancyBTTS26/2510 1-1 + 10.4
01/02/2019Germany - Bundesliga19:30Hannover - RB LeipzigBTTS67/10010 0-3 - 10
01/02/2019England - Championship19:45Preston - Derby113/1010 0-0 - 10
01/02/2019Spain - Primera Divisio20:00Huesca - Valladolid15/410 4-0 + 12.5
01/02/2019Italy - Serie B20:00Lecce - Ascoli126/3310 P.P. - 0
31/01/2019Germany - 2.Bundesliga19:30Union Berlin - FC Koln27/510 2-0 - 10
31/01/2019Coppa Italia20:00Inter - Lazio161/5010 0-0 - 10
31/01/2019 Copa del Rey20:30Girona - Real MadridOver 3.513/1010 1-3 + 13
30/01/2019Coppa Italia17:15Fiorentina - AS RomaOver 3.57/410 7-1 + 17.5
30/01/2019Copa del Rey18:30Betis - Espanyol183/10010 1-1 - 10
30/01/2019Coppa Italia19:45Atalanta - Juventus21/110 3-0 - 10
30/01/2019England - Premier League20:00Liverpool - Leicester1 & BTTS7/410 1-1 - 10
30/01/2019England - Premier League20:00Tottenham - WatfordX213/1010 2-1 - 10
30/01/2019Copa del Rey20:30Barcelona - FC Sevilla1 & BTTS5/410 6-1 + 12.5
29/01/2019England - Premier League19:45Arsenal - CardiffArsenal & Over31/2010 2-1 + 15.5
29/01/2019England - Premier League19:45Wolves - West HamBTTS73/10010 3-0 - 10
29/01/2019Coppa Italia19:45AC Milan - Napoli26/510 2-0 - 10
29/01/2019France - Coupe de la Ligue20:05Guingamp - Monaco117/1010 2-2 - 10
29/01/2019Spain - Copa del Rey20:30Valencia - GetafeOver 2.57/510 3-1 + 14
28/01/2019Portugal - Primeira Liga19:00Moreirense - Nacional da MadeiraBTTS19/2010 2-1 + 9.5
28/01/2019Italy - Serie A19:30Empoli - GenoaX23/1010 1-3 - 10
28/01/2019France - Ligue 219:45Troyes - Lens17/410 1-0 + 17.5
28/01/2019England - FA CUP19:45Barnet - Brentford2 & Over 2.51/110 3-3 - 10
28/01/2019Spain - Primera Division20:00Alaves - Rayo Vallecano14/310 0-1 - 10
27/01/2019Holland - Eredivisie13:30Feyenoord - Ajax218/2510 6-2 - 10
27/01/2019Italy - Serie A14:00Atalanta - AS Roma111/1010 3-3 - 10
27/01/2019Primera17:30Athletic Bilbao - Betis111/1010 1-0 + 11
27/01/2019Primera19:45Espanyol - Real Madrid267/10010 2-4 + 6.7
26/01/2019Cheltenham15:35WHOLESTONE (win)each-way9/110 - - -

© Copyright HelpBet. All rights reserved.